createdAt,value
2022-12-29T00:02:13.241Z,9.63
2022-12-29T00:04:45.299Z,9.70
2022-12-29T00:07:17.766Z,9.75
2022-12-29T00:09:50.211Z,9.71
2022-12-29T00:12:22.314Z,9.80
2022-12-29T00:15:12.682Z,9.72
2022-12-29T00:17:44.607Z,9.74
2022-12-29T00:20:35.148Z,9.79
2022-12-29T00:23:28.450Z,9.82
2022-12-29T00:26:23.471Z,9.87
2022-12-29T00:29:13.826Z,9.94
2022-12-29T00:32:04.541Z,9.87
2022-12-29T00:34:54.896Z,10.02
2022-12-29T00:37:47.131Z,9.96
2022-12-29T00:40:37.500Z,9.89
2022-12-29T00:43:28.268Z,9.95
2022-12-29T00:46:00.278Z,10.00
2022-12-29T00:48:50.571Z,10.03
2022-12-29T00:51:22.550Z,10.08
2022-12-29T00:53:54.580Z,10.07
2022-12-29T00:56:26.687Z,10.06
2022-12-29T00:59:06.953Z,10.02
2022-12-29T01:01:40.402Z,9.97
2022-12-29T01:04:13.045Z,10.01
2022-12-29T01:06:45.112Z,9.92
2022-12-29T01:09:36.499Z,9.99
2022-12-29T01:12:10.189Z,10.06
2022-12-29T01:14:42.219Z,9.98
2022-12-29T01:17:14.209Z,10.01
2022-12-29T01:19:46.597Z,10.10
2022-12-29T01:22:18.611Z,10.12
2022-12-29T01:24:50.743Z,10.10
2022-12-29T01:27:22.773Z,10.07
2022-12-29T01:29:54.746Z,10.13
2022-12-29T01:32:26.855Z,10.16
2022-12-29T01:34:58.802Z,10.24
2022-12-29T01:37:31.009Z,10.35
2022-12-29T01:40:03.267Z,10.25
2022-12-29T01:42:35.331Z,10.34
2022-12-29T01:45:14.184Z,10.27
2022-12-29T01:47:58.989Z,10.35
2022-12-29T01:50:36.495Z,10.37
2022-12-29T01:53:27.342Z,10.39
2022-12-29T01:56:06.182Z,10.40
2022-12-29T01:58:44.291Z,10.51
2022-12-29T02:01:19.690Z,10.63
2022-12-29T02:03:52.976Z,10.53
2022-12-29T02:06:30.757Z,10.44
2022-12-29T02:09:02.960Z,10.50
2022-12-29T02:11:37.721Z,10.59
2022-12-29T02:14:12.796Z,10.58
2022-12-29T02:17:17.425Z,10.58
2022-12-29T02:20:01.885Z,10.51
2022-12-29T02:22:51.894Z,10.51
2022-12-29T02:25:46.429Z,10.61
2022-12-29T02:29:08.631Z,10.71
2022-12-29T02:31:50.235Z,10.68
2022-12-29T02:35:03.697Z,10.70
2022-12-29T02:37:53.072Z,10.69
2022-12-29T02:40:41.032Z,10.78
2022-12-29T02:43:45.022Z,10.70
2022-12-29T02:46:48.857Z,10.70
2022-12-29T02:49:36.913Z,10.71
2022-12-29T02:52:17.144Z,10.76
2022-12-29T02:54:50.960Z,10.80
2022-12-29T02:57:22.794Z,10.85
2022-12-29T03:00:24.738Z,10.86
2022-12-29T03:03:17.082Z,10.83
2022-12-29T03:06:15.837Z,10.88
2022-12-29T03:08:50.788Z,10.89
2022-12-29T03:11:47.780Z,11.02
2022-12-29T03:14:52.331Z,11.04
2022-12-29T03:18:08.487Z,10.97
2022-12-29T03:20:55.716Z,10.94
2022-12-29T03:23:29.705Z,10.79
2022-12-29T03:26:06.656Z,10.86
2022-12-29T03:28:47.664Z,10.73
2022-12-29T03:31:21.405Z,10.82
2022-12-29T03:33:56.733Z,10.82
2022-12-29T03:36:47.623Z,10.67
2022-12-29T03:39:23.453Z,10.73
2022-12-29T03:42:04.262Z,10.72
2022-12-29T03:44:45.827Z,10.83
2022-12-29T03:47:17.914Z,10.80
2022-12-29T03:49:51.374Z,10.68
2022-12-29T03:52:23.374Z,10.71
2022-12-29T03:54:55.323Z,10.59
2022-12-29T03:57:27.279Z,10.54
2022-12-29T03:59:59.214Z,10.62
2022-12-29T04:02:31.506Z,10.68
2022-12-29T04:05:03.997Z,10.65
2022-12-29T04:07:35.962Z,10.65
2022-12-29T04:10:08.406Z,10.56
2022-12-29T04:12:42.685Z,10.46
2022-12-29T04:15:14.768Z,10.40
2022-12-29T04:17:46.775Z,10.50
2022-12-29T04:20:37.024Z,10.50
2022-12-29T04:23:09.177Z,10.41
2022-12-29T04:25:41.187Z,10.40
2022-12-29T04:28:13.168Z,10.41
2022-12-29T04:30:47.742Z,10.35
2022-12-29T04:33:20.647Z,10.35
2022-12-29T04:35:55.025Z,10.50
2022-12-29T04:38:27.061Z,10.50
2022-12-29T04:41:02.473Z,10.40
2022-12-29T04:43:34.420Z,10.48
2022-12-29T04:46:06.893Z,10.55
2022-12-29T04:48:39.395Z,10.47
2022-12-29T04:51:11.321Z,10.46
2022-12-29T04:53:43.288Z,10.51
2022-12-29T04:56:15.210Z,10.63
2022-12-29T04:58:47.155Z,10.62
2022-12-29T05:01:19.189Z,10.65
2022-12-29T05:03:53.099Z,10.71
2022-12-29T05:06:25.141Z,10.70
2022-12-29T05:08:57.101Z,10.81
2022-12-29T05:11:29.020Z,10.78
2022-12-29T05:14:01.012Z,10.66
2022-12-29T05:16:33.050Z,10.58
2022-12-29T05:19:05.612Z,10.47
2022-12-29T05:21:37.556Z,10.48
2022-12-29T05:24:09.642Z,10.41
2022-12-29T05:26:41.657Z,10.26
2022-12-29T05:29:13.663Z,10.21
2022-12-29T05:31:45.766Z,10.14
2022-12-29T05:34:17.773Z,10.12
2022-12-29T05:36:50.475Z,10.11
2022-12-29T05:39:22.681Z,10.04
2022-12-29T05:41:54.674Z,10.05
2022-12-29T05:44:26.806Z,10.02
2022-12-29T05:46:58.816Z,10.10
2022-12-29T05:49:30.880Z,10.16
2022-12-29T05:52:02.801Z,10.21
2022-12-29T05:54:34.771Z,10.18
2022-12-29T05:57:06.838Z,10.21
2022-12-29T05:59:38.797Z,10.24
2022-12-29T06:02:11.667Z,10.31
2022-12-29T06:04:43.731Z,10.41
2022-12-29T06:07:15.737Z,10.51
2022-12-29T06:09:47.688Z,10.54
2022-12-29T06:12:19.651Z,10.59
2022-12-29T06:14:51.634Z,10.61
2022-12-29T06:17:23.558Z,10.51
2022-12-29T06:19:55.577Z,10.52
2022-12-29T06:22:27.550Z,10.54
2022-12-29T06:25:04.640Z,10.46
2022-12-29T06:27:37.270Z,10.56
2022-12-29T06:30:10.424Z,10.50
2022-12-29T06:32:42.656Z,10.54
2022-12-29T06:35:14.648Z,10.51
2022-12-29T06:37:46.615Z,10.44
2022-12-29T06:40:19.034Z,10.46
2022-12-29T06:42:50.949Z,10.43
2022-12-29T06:45:22.932Z,10.31
2022-12-29T06:47:54.876Z,10.31
2022-12-29T06:50:26.813Z,10.25
2022-12-29T06:52:58.817Z,10.20
2022-12-29T06:55:30.777Z,10.10
2022-12-29T06:58:02.743Z,10.22
2022-12-29T07:00:35.705Z,10.28
2022-12-29T07:03:07.861Z,10.33
2022-12-29T07:05:39.901Z,10.28
2022-12-29T07:08:11.922Z,10.28
2022-12-29T07:10:43.905Z,10.20
2022-12-29T07:13:15.869Z,10.18
2022-12-29T07:15:47.819Z,10.26
2022-12-29T07:18:19.806Z,10.15
2022-12-29T07:20:51.758Z,10.10
2022-12-29T07:23:23.675Z,9.96
2022-12-29T07:26:08.374Z,9.91
2022-12-29T07:28:40.570Z,9.82
2022-12-29T07:31:19.547Z,9.79
2022-12-29T07:33:51.540Z,9.83
2022-12-29T07:36:26.063Z,9.83
2022-12-29T07:39:01.490Z,9.78
2022-12-29T07:41:33.873Z,9.68
2022-12-29T07:44:05.902Z,9.70
2022-12-29T07:46:54.479Z,9.78
2022-12-29T07:49:28.838Z,9.90
2022-12-29T07:52:00.948Z,9.85
2022-12-29T07:54:32.992Z,9.90
2022-12-29T07:57:06.887Z,10.01
2022-12-29T07:59:38.830Z,9.89
2022-12-29T08:02:13.901Z,9.87
2022-12-29T08:04:45.958Z,9.83
2022-12-29T08:07:17.946Z,9.74
2022-12-29T08:09:49.931Z,9.66
2022-12-29T08:12:21.991Z,9.72
2022-12-29T08:14:54.576Z,9.76
2022-12-29T08:17:26.606Z,9.87
2022-12-29T08:19:58.674Z,9.86
2022-12-29T08:22:30.641Z,9.76
2022-12-29T08:25:02.704Z,9.72
2022-12-29T08:27:34.633Z,9.80
2022-12-29T08:30:07.559Z,9.77
2022-12-29T08:32:39.530Z,9.78
2022-12-29T08:35:11.640Z,9.77
2022-12-29T08:37:44.015Z,9.72
2022-12-29T08:40:16.333Z,9.72
2022-12-29T08:42:48.296Z,9.93
2022-12-29T08:45:20.501Z,9.83
2022-12-29T08:47:52.475Z,9.96
2022-12-29T08:50:24.465Z,10.00
2022-12-29T08:52:56.528Z,9.96
2022-12-29T08:55:28.495Z,9.97
2022-12-29T08:58:00.499Z,9.99
2022-12-29T09:00:32.473Z,10.02
2022-12-29T09:03:04.628Z,10.06
2022-12-29T09:05:36.814Z,10.00
2022-12-29T09:08:08.758Z,10.20
2022-12-29T09:10:40.768Z,10.15
2022-12-29T09:13:14.780Z,10.11
2022-12-29T09:15:46.789Z,10.09
2022-12-29T09:18:21.347Z,10.29
2022-12-29T09:21:02.112Z,10.22
2022-12-29T09:23:34.802Z,10.29
2022-12-29T09:26:08.450Z,10.15
2022-12-29T09:28:41.253Z,10.24
2022-12-29T09:31:13.621Z,10.24
2022-12-29T09:33:45.759Z,10.21
2022-12-29T09:36:17.690Z,10.27
2022-12-29T09:38:49.679Z,10.36
2022-12-29T09:41:30.645Z,10.45
2022-12-29T09:44:20.187Z,10.37
2022-12-29T09:46:55.032Z,10.26
2022-12-29T09:49:57.979Z,10.32
2022-12-29T09:52:58.617Z,10.31
2022-12-29T09:55:40.192Z,10.38
2022-12-29T09:58:18.015Z,10.50
2022-12-29T10:01:23.237Z,10.37
2022-12-29T10:03:58.475Z,10.37
2022-12-29T10:07:03.666Z,10.37
2022-12-29T10:10:02.505Z,10.50
2022-12-29T10:12:53.320Z,10.44
2022-12-29T10:16:16.154Z,10.37
2022-12-29T10:18:57.094Z,10.42
2022-12-29T10:22:02.364Z,10.30
2022-12-29T10:24:39.023Z,10.34
2022-12-29T10:27:14.405Z,10.23
2022-12-29T10:29:56.440Z,10.18
2022-12-29T10:32:33.641Z,10.35
2022-12-29T10:35:19.356Z,10.52
2022-12-29T10:38:11.457Z,10.66
2022-12-29T10:40:59.737Z,10.62
2022-12-29T10:43:55.100Z,10.62
2022-12-29T10:46:34.713Z,10.54
2022-12-29T10:49:21.224Z,10.62
2022-12-29T10:51:58.502Z,10.72
2022-12-29T10:55:01.490Z,10.68
2022-12-29T10:57:47.853Z,10.67
2022-12-29T11:00:22.919Z,10.41
2022-12-29T11:03:04.057Z,10.44
2022-12-29T11:05:54.855Z,10.42
2022-12-29T11:08:32.557Z,10.35
2022-12-29T11:11:08.789Z,10.69
2022-12-29T11:13:58.054Z,10.71
2022-12-29T11:16:33.913Z,10.73
2022-12-29T11:19:06.390Z,10.91
2022-12-29T11:21:42.936Z,10.92
2022-12-29T11:24:25.338Z,11.05
2022-12-29T11:27:20.573Z,10.92
2022-12-29T11:29:54.923Z,10.99
2022-12-29T11:32:33.073Z,10.99
2022-12-29T11:35:05.817Z,11.23
2022-12-29T11:37:41.320Z,11.26
2022-12-29T11:40:21.931Z,11.20
2022-12-29T11:43:03.800Z,11.20
2022-12-29T11:45:38.322Z,11.11
2022-12-29T11:48:23.189Z,11.11
2022-12-29T11:51:00.711Z,11.11
2022-12-29T11:53:48.635Z,11.19
2022-12-29T11:56:43.045Z,11.12
2022-12-29T11:59:35.277Z,11.16
2022-12-29T12:03:00.157Z,11.33
2022-12-29T12:05:57.065Z,11.12
2022-12-29T12:08:48.796Z,11.26
2022-12-29T12:11:27.728Z,11.11
2022-12-29T12:14:13.453Z,11.28
2022-12-29T12:16:55.876Z,11.22
2022-12-29T12:19:58.320Z,11.10
2022-12-29T12:22:54.600Z,11.09
2022-12-29T12:25:38.460Z,11.24
2022-12-29T12:28:21.938Z,11.09
2022-12-29T12:30:58.631Z,11.11
2022-12-29T12:33:37.522Z,11.28
2022-12-29T12:36:19.933Z,11.23
2022-12-29T12:39:24.564Z,11.06
2022-12-29T12:42:19.296Z,11.16
2022-12-29T12:45:22.221Z,11.14
2022-12-29T12:48:32.940Z,10.96
2022-12-29T12:51:48.326Z,10.93
2022-12-29T12:54:59.673Z,10.68
2022-12-29T12:58:06.603Z,10.41
2022-12-29T13:01:19.957Z,10.32
2022-12-29T13:04:18.273Z,10.31
2022-12-29T13:07:03.416Z,10.33
2022-12-29T13:10:16.292Z,10.39
2022-12-29T13:13:35.872Z,10.37
2022-12-29T13:16:41.602Z,10.21
2022-12-29T13:19:40.806Z,10.06
2022-12-29T13:22:39.589Z,10.07
2022-12-29T13:25:47.740Z,10.14
2022-12-29T13:28:51.163Z,9.99
2022-12-29T13:32:13.803Z,10.03
2022-12-29T13:35:33.275Z,10.00
2022-12-29T13:38:20.237Z,10.05
2022-12-29T13:40:58.450Z,10.18
2022-12-29T13:43:33.189Z,10.11
2022-12-29T13:46:14.347Z,10.12
2022-12-29T13:49:09.999Z,10.18
2022-12-29T13:51:49.612Z,10.25
2022-12-29T13:54:54.341Z,10.28
2022-12-29T13:58:04.910Z,10.34
2022-12-29T14:01:17.332Z,10.40
2022-12-29T14:04:02.604Z,10.36
2022-12-29T14:06:41.672Z,10.39
2022-12-29T14:09:50.061Z,10.30
2022-12-29T14:12:34.682Z,10.25
2022-12-29T14:15:12.728Z,10.28
2022-12-29T14:17:45.847Z,10.35
2022-12-29T14:20:26.953Z,10.37
2022-12-29T14:23:09.330Z,10.51
2022-12-29T14:25:57.768Z,10.42
2022-12-29T14:28:36.027Z,10.48
2022-12-29T14:31:19.547Z,10.56
2022-12-29T14:34:10.275Z,10.53
2022-12-29T14:36:57.724Z,10.43
2022-12-29T14:39:43.604Z,10.50
2022-12-29T14:42:23.520Z,10.11
2022-12-29T14:45:27.712Z,10.01
2022-12-29T14:48:00.361Z,10.18
2022-12-29T14:50:44.465Z,10.34
2022-12-29T14:53:44.456Z,10.23
2022-12-29T14:56:21.260Z,10.01
2022-12-29T14:59:04.394Z,9.60
2022-12-29T15:01:50.226Z,9.49
2022-12-29T15:04:27.922Z,9.53
2022-12-29T15:07:04.435Z,9.46
2022-12-29T15:09:50.479Z,9.46
2022-12-29T15:12:48.952Z,9.39
2022-12-29T15:15:24.243Z,9.48
2022-12-29T15:17:56.306Z,9.49
2022-12-29T15:20:32.600Z,9.53
2022-12-29T15:23:12.471Z,9.54
2022-12-29T15:25:58.977Z,9.40
2022-12-29T15:28:39.869Z,9.26
2022-12-29T15:31:27.812Z,9.07
2022-12-29T15:34:13.523Z,9.00
2022-12-29T15:36:45.568Z,9.03
2022-12-29T15:39:47.042Z,9.00
2022-12-29T15:42:43.843Z,9.13
2022-12-29T15:45:16.578Z,9.10
2022-12-29T15:47:50.914Z,9.28
2022-12-29T15:50:32.012Z,9.28
2022-12-29T15:53:12.465Z,9.22
2022-12-29T15:55:45.552Z,9.30
2022-12-29T15:58:29.839Z,9.27
2022-12-29T16:01:03.043Z,9.17
2022-12-29T16:03:37.594Z,9.12
2022-12-29T16:06:27.405Z,9.05
2022-12-29T16:09:44.851Z,9.09
2022-12-29T16:12:22.321Z,9.04
2022-12-29T16:15:13.934Z,9.05
2022-12-29T16:17:54.061Z,9.07
2022-12-29T16:20:40.849Z,9.14
2022-12-29T16:23:27.272Z,9.11
2022-12-29T16:26:12.046Z,9.14
2022-12-29T16:28:44.473Z,9.19
2022-12-29T16:31:47.027Z,9.29
2022-12-29T16:34:38.656Z,9.28
2022-12-29T16:37:29.865Z,9.26
2022-12-29T16:40:34.129Z,9.27
2022-12-29T16:43:20.430Z,9.26
2022-12-29T16:45:52.596Z,9.30
2022-12-29T16:48:32.392Z,9.25
2022-12-29T16:51:17.472Z,9.36
2022-12-29T16:53:55.165Z,9.31
2022-12-29T16:56:35.735Z,9.30
2022-12-29T16:59:32.276Z,9.34
2022-12-29T17:02:15.557Z,9.31
2022-12-29T17:04:50.742Z,9.34
2022-12-29T17:07:26.655Z,9.23
2022-12-29T17:09:59.104Z,9.17
2022-12-29T17:12:34.917Z,9.17
2022-12-29T17:15:16.197Z,9.27
2022-12-29T17:17:50.487Z,9.33
2022-12-29T17:20:30.994Z,9.38
2022-12-29T17:23:05.896Z,9.31
2022-12-29T17:25:38.759Z,9.33
2022-12-29T17:28:27.759Z,9.24
2022-12-29T17:31:06.923Z,9.14
2022-12-29T17:33:40.391Z,9.20
2022-12-29T17:36:12.736Z,9.26
2022-12-29T17:38:44.744Z,9.31
2022-12-29T17:41:16.755Z,9.23
2022-12-29T17:43:48.741Z,9.21
2022-12-29T17:46:21.000Z,9.20
2022-12-29T17:48:54.042Z,9.27
2022-12-29T17:51:26.427Z,9.37
2022-12-29T17:53:58.420Z,9.52
2022-12-29T17:56:30.860Z,9.50
2022-12-29T17:59:02.883Z,9.58
2022-12-29T18:01:38.076Z,9.58
2022-12-29T18:04:21.934Z,9.57
2022-12-29T18:06:53.901Z,9.62
2022-12-29T18:09:25.964Z,9.60
2022-12-29T18:11:58.004Z,9.60
2022-12-29T18:14:30.013Z,9.37
2022-12-29T18:17:02.025Z,9.40
2022-12-29T18:19:36.083Z,9.39
2022-12-29T18:22:09.388Z,9.27
2022-12-29T18:24:41.453Z,9.29
2022-12-29T18:27:19.563Z,9.32
2022-12-29T18:29:51.871Z,9.32
2022-12-29T18:32:24.258Z,9.29
2022-12-29T18:34:56.269Z,9.35
2022-12-29T18:37:28.304Z,9.25
2022-12-29T18:40:00.551Z,9.26
2022-12-29T18:42:32.519Z,9.25
2022-12-29T18:45:19.533Z,9.13
2022-12-29T18:47:51.687Z,9.15
2022-12-29T18:50:23.724Z,9.26
2022-12-29T18:53:01.583Z,9.23
2022-12-29T18:55:35.816Z,9.39
2022-12-29T18:58:08.103Z,9.50
2022-12-29T19:00:40.707Z,9.46
2022-12-29T19:03:18.880Z,9.42
2022-12-29T19:05:51.325Z,9.32
2022-12-29T19:08:23.341Z,9.34
2022-12-29T19:10:55.437Z,9.25
2022-12-29T19:13:29.560Z,9.38
2022-12-29T19:16:01.647Z,9.34
2022-12-29T19:19:05.718Z,9.43
2022-12-29T19:21:25.764Z,9.54
2022-12-29T19:23:57.781Z,9.54
2022-12-29T19:26:39.452Z,9.55
2022-12-29T19:29:18.333Z,9.48
2022-12-29T19:31:50.516Z,9.44
2022-12-29T19:34:22.592Z,9.43
2022-12-29T19:36:54.575Z,9.29
2022-12-29T19:39:26.609Z,9.08
2022-12-29T19:42:03.562Z,8.87
2022-12-29T19:44:37.535Z,8.77
2022-12-29T19:47:09.775Z,8.54
2022-12-29T19:49:43.604Z,8.06
2022-12-29T19:52:16.046Z,7.75
2022-12-29T19:54:48.027Z,7.55
2022-12-29T19:57:21.917Z,7.46
2022-12-29T19:59:56.738Z,7.37
2022-12-29T20:02:34.869Z,7.44
2022-12-29T20:05:08.671Z,7.35
2022-12-29T20:07:41.527Z,7.40
2022-12-29T20:10:17.267Z,7.51
2022-12-29T20:12:49.354Z,7.48
2022-12-29T20:15:21.414Z,7.56
2022-12-29T20:20:45.589Z,7.72
2022-12-29T20:23:17.671Z,7.68
2022-12-29T20:25:56.341Z,7.71
2022-12-29T20:28:29.734Z,7.76
2022-12-29T20:31:08.716Z,7.82
2022-12-29T20:33:41.046Z,7.80
2022-12-29T20:36:20.951Z,7.76
2022-12-29T20:38:55.774Z,7.60
2022-12-29T20:41:31.483Z,7.54
2022-12-29T20:44:05.374Z,7.50
2022-12-29T20:46:43.542Z,7.52
2022-12-29T20:49:16.426Z,7.56
2022-12-29T20:52:05.797Z,7.66
2022-12-29T20:54:39.721Z,7.55
2022-12-29T20:57:13.473Z,7.60
2022-12-29T20:59:48.556Z,7.65
2022-12-29T21:02:23.279Z,7.71
2022-12-29T21:07:51.373Z,7.74
2022-12-29T21:10:23.653Z,7.75
2022-12-29T21:12:55.859Z,7.75
2022-12-29T21:15:32.920Z,7.81
2022-12-29T21:18:05.087Z,7.81
2022-12-29T21:20:37.433Z,7.87
2022-12-29T21:23:10.753Z,7.89
2022-12-29T21:25:45.372Z,7.83
2022-12-29T21:28:17.417Z,7.87
2022-12-29T21:30:50.775Z,7.73
2022-12-29T21:33:22.900Z,7.73
2022-12-29T21:35:54.866Z,7.71
2022-12-29T21:38:29.580Z,7.68
2022-12-29T21:41:15.540Z,7.70
2022-12-29T21:44:08.182Z,7.67
2022-12-29T21:46:42.338Z,7.64
2022-12-29T21:49:14.545Z,7.64
2022-12-29T21:51:53.717Z,7.60
2022-12-29T21:54:47.527Z,7.57
2022-12-29T21:57:38.245Z,7.62
2022-12-29T22:00:30.025Z,7.71
2022-12-29T22:03:23.318Z,7.75
2022-12-29T22:06:14.945Z,7.75
2022-12-29T22:09:05.665Z,7.71
2022-12-29T22:11:55.882Z,7.77
2022-12-29T22:14:27.915Z,7.79
2022-12-29T22:16:59.970Z,7.83
2022-12-29T22:19:31.936Z,7.64
2022-12-29T22:22:04.174Z,7.74
2022-12-29T22:24:36.219Z,7.69
2022-12-29T22:27:08.281Z,7.63
2022-12-29T22:29:41.413Z,7.62
2022-12-29T22:32:13.414Z,7.64
2022-12-29T22:34:47.226Z,7.61
2022-12-29T22:37:19.529Z,7.60
2022-12-29T22:39:51.598Z,7.61
2022-12-29T22:42:23.720Z,7.64
2022-12-29T22:44:55.700Z,7.50
2022-12-29T22:47:27.751Z,7.53
2022-12-29T22:50:00.460Z,7.59
2022-12-29T22:52:32.521Z,7.60
2022-12-29T22:55:07.207Z,7.54
2022-12-29T22:57:39.365Z,7.51
2022-12-29T23:00:11.706Z,7.52
2022-12-29T23:02:43.964Z,7.45
2022-12-29T23:05:16.136Z,7.48
2022-12-29T23:07:48.079Z,7.43
2022-12-29T23:10:20.075Z,7.39
2022-12-29T23:12:52.022Z,7.51
2022-12-29T23:15:24.024Z,7.53
2022-12-29T23:17:56.019Z,7.44
2022-12-29T23:20:27.983Z,7.35
2022-12-29T23:22:59.951Z,7.36
2022-12-29T23:25:31.948Z,7.34
2022-12-29T23:28:06.943Z,7.29
2022-12-29T23:30:38.922Z,7.29
2022-12-29T23:33:10.931Z,7.30
2022-12-29T23:35:42.908Z,7.35
2022-12-29T23:38:14.937Z,7.39
2022-12-29T23:40:46.909Z,7.37
2022-12-29T23:43:18.995Z,7.45
2022-12-29T23:45:51.444Z,7.39
2022-12-29T23:48:23.510Z,7.38
2022-12-29T23:50:55.896Z,7.42
2022-12-29T23:53:29.231Z,7.49
2022-12-29T23:56:01.504Z,7.46
2022-12-29T23:58:35.314Z,7.55
